Time;durP1;ratioP1;P1;durP2;ratioP2;P2;SDS_P1;SDS_P2;PMS_P1;PMS_P2;Temp;Humidity;BMP_temperature;BMP_pressure;BME280_temperature;BME280_humidity;BME280_pressure;Samples;Min_cycle;Max_cycle;Signal;HPM_P1;HPM_P2
2023/04/01 00:06:59;;;;;;;4.40;2.80;;;;;;;10.26;100.00;99147.84;6140936;23;20435;-84
2023/04/01 01:09:17;;;;;;;3.97;3.10;;;;;;;10.18;100.00;99150.91;6094172;23;20473;-70
2023/04/01 01:11:52;;;;;;;5.70;2.10;;;;;;;10.03;100.00;99149.53;6088516;23;20183;-69
2023/04/01 01:14:32;;;;;;;5.63;2.87;;;;;;;10.19;100.00;99147.16;6092444;23;20411;-67
2023/04/01 01:17:09;;;;;;;3.00;2.00;;;;;;;10.24;100.00;99144.53;6093681;23;20439;-67
2023/04/01 01:20:10;;;;;;;3.10;2.43;;;;;;;10.23;100.00;99148.31;6092596;23;20442;-67
2023/04/01 01:23:26;;;;;;;4.03;2.43;;;;;;;10.27;100.00;99152.16;6091775;23;20410;-68
2023/04/01 01:26:26;;;;;;;8.33;4.10;;;;;;;10.11;100.00;99150.22;6063017;23;20419;-68
2023/04/01 01:29:06;;;;;;;4.53;2.43;;;;;;;10.28;100.00;99151.09;6092294;23;20792;-68
2023/04/01 01:31:45;;;;;;;4.23;3.03;;;;;;;10.22;100.00;99155.59;6093857;23;20378;-68
2023/04/01 01:34:23;;;;;;;3.80;2.70;;;;;;;10.12;100.00;99154.56;6092933;23;20353;-67
2023/04/01 01:36:59;;;;;;;6.13;3.13;;;;;;;10.15;100.00;99156.78;6091529;23;20379;-68
2023/04/01 01:39:32;;;;;;;4.23;2.70;;;;;;;10.21;100.00;99153.97;6092281;23;20417;-67
2023/04/01 01:42:05;;;;;;;4.80;3.10;;;;;;;10.21;100.00;99155.84;6091822;23;20582;-68
2023/04/01 01:44:36;;;;;;;4.80;2.70;;;;;;;10.20;100.00;99159.63;6091996;23;20407;-67
2023/04/01 01:47:06;;;;;;;4.20;3.53;;;;;;;10.25;100.00;99157.00;6092846;23;20425;-68
2023/04/01 01:49:37;;;;;;;4.10;3.10;;;;;;;10.19;100.00;99157.97;6091881;23;20434;-67
2023/04/01 01:52:07;;;;;;;3.00;2.50;;;;;;;10.18;100.00;99162.56;6093450;23;20393;-67
2023/04/01 01:54:37;;;;;;;5.97;3.70;;;;;;;10.14;100.00;99155.97;6092033;23;20414;-68
2023/04/01 01:57:09;;;;;;;4.27;2.63;;;;;;;10.20;100.00;99154.22;6091586;23;20403;-67
2023/04/01 01:59:46;;;;;;;7.27;4.93;;;;;;;10.14;100.00;99160.53;6093138;23;21005;-68
2023/04/01 02:02:23;;;;;;;11.65;4.65;;;;;;;10.27;100.00;99161.09;6092166;23;20453;-68
2023/04/01 02:04:54;;;;;;;4.03;2.67;;;;;;;10.17;100.00;99160.91;6093550;23;20169;-68
2023/04/01 02:07:29;;;;;;;6.43;3.30;;;;;;;10.19;100.00;99168.78;6077435;23;20459;-68
2023/04/01 02:10:00;;;;;;;4.80;2.77;;;;;;;10.11;100.00;99169.97;6062925;23;20408;-69
2023/04/01 02:12:31;;;;;;;5.43;3.53;;;;;;;10.15;100.00;99157.59;6062975;23;20454;-69
2023/04/01 02:15:07;;;;;;;3.57;3.03;;;;;;;10.23;100.00;99164.53;6062427;23;20409;-69
2023/04/01 02:17:40;;;;;;;3.13;2.50;;;;;;;10.24;100.00;99163.47;6063711;23;20390;-68
2023/04/01 02:20:14;;;;;;;3.87;2.47;;;;;;;10.29;100.00;99169.78;6062871;23;20411;-69
2023/04/01 02:22:48;;;;;;;5.55;3.22;;;;;;;10.11;100.00;99169.97;6062744;23;20388;-68
2023/04/01 02:25:21;;;;;;;3.70;2.28;;;;;;;10.13;100.00;99157.00;6062428;23;20181;-68
2023/04/01 02:27:50;;;;;;;3.93;2.70;;;;;;;10.15;100.00;99163.00;6064091;23;20206;-68
2023/04/01 02:30:20;;;;;;;6.30;2.17;;;;;;;10.14;100.00;99174.88;6062557;23;20417;-66
2023/04/01 02:32:50;;;;;;;4.63;2.30;;;;;;;10.09;100.00;99163.13;6062678;23;20453;-67
2023/04/01 02:35:20;;;;;;;4.10;2.20;;;;;;;10.01;100.00;99172.47;6062534;23;20389;-68
2023/04/01 02:37:53;;;;;;;8.30;3.30;;;;;;;10.06;100.00;99174.44;6062313;23;20498;-67
2023/04/01 02:40:22;;;;;;;6.73;2.57;;;;;;;10.12;100.00;99174.28;6062404;23;20414;-69
2023/04/01 02:42:51;;;;;;;4.78;3.05;;;;;;;10.15;100.00;99178.41;6062242;23;20767;-67
2023/04/01 02:45:21;;;;;;;5.70;2.60;;;;;;;10.13;100.00;99180.50;6062328;23;20178;-68
2023/04/01 02:47:50;;;;;;;4.78;3.05;;;;;;;10.03;100.00;99176.56;6062533;23;21044;-69
2023/04/01 02:50:19;;;;;;;3.07;2.37;;;;;;;10.12;100.00;99176.19;6063871;23;20169;-69
2023/04/01 02:52:50;;;;;;;3.70;2.90;;;;;;;10.14;100.00;99188.38;6062596;23;20498;-67
2023/04/01 02:55:19;;;;;;;4.57;3.00;;;;;;;10.11;100.00;99182.66;6062507;23;20422;-68
2023/04/01 02:57:48;;;;;;;9.38;2.85;;;;;;;10.18;100.00;99183.34;6062389;23;20435;-68
2023/04/01 03:00:18;;;;;;;6.13;4.20;;;;;;;10.29;100.00;99188.72;6065540;23;20156;-67
2023/04/01 03:02:47;;;;;;;3.27;2.83;;;;;;;10.30;100.00;99187.66;6064194;23;20434;-67
2023/04/01 03:05:17;;;;;;;2.43;2.13;;;;;;;10.22;100.00;99195.31;6064005;23;20389;-66
2023/04/01 03:07:46;;;;;;;3.43;2.27;;;;;;;10.29;100.00;99196.00;6103028;23;20432;-68
2023/04/01 03:10:17;;;;;;;2.40;2.20;;;;;;;10.18;100.00;99191.47;6098003;23;20384;-69
2023/04/01 03:12:46;;;;;;;4.40;3.00;;;;;;;10.16;100.00;99196.31;6097883;23;20725;-68
2023/04/01 03:15:16;;;;;;;4.93;2.70;;;;;;;10.14;100.00;99192.97;6097659;23;20411;-68
2023/04/01 03:17:46;;;;;;;3.93;2.80;;;;;;;10.16;100.00;99190.91;6097541;23;20425;-66
2023/04/01 03:20:16;;;;;;;6.90;3.10;;;;;;;10.14;100.00;99196.50;6125328;23;20357;-68
2023/04/01 03:22:45;;;;;;;5.10;2.60;;;;;;;10.16;100.00;99197.13;6124437;23;20364;-68
2023/04/01 03:25:16;;;;;;;8.03;3.30;;;;;;;10.17;100.00;99200.63;6097948;23;20755;-68
2023/04/01 03:27:45;;;;;;;2.67;2.47;;;;;;;10.15;100.00;99195.44;6098827;23;20411;-67
2023/04/01 03:30:14;;;;;;;4.63;2.77;;;;;;;10.22;100.00;99200.72;6098174;23;20405;-69
2023/04/01 03:32:50;;;;;;;2.77;1.90;;;;;;;10.18;100.00;99204.97;6097886;23;20445;-68
2023/04/01 03:35:20;;;;;;;4.03;2.87;;;;;;;10.24;100.00;99204.00;6098717;23;20432;-68
2023/04/01 03:37:49;;;;;;;4.53;2.57;;;;;;;10.23;100.00;99208.59;6123613;23;22157;-68
2023/04/01 03:40:20;;;;;;;9.67;3.00;;;;;;;10.21;100.00;99209.91;6097700;23;20414;-68
2023/04/01 03:42:50;;;;;;;3.47;2.43;;;;;;;10.36;100.00;99207.50;6098883;23;20410;-69
2023/04/01 03:45:19;;;;;;;6.03;2.63;;;;;;;10.23;100.00;99210.47;6098123;23;20412;-69
2023/04/01 03:47:49;;;;;;;3.60;2.33;;;;;;;10.16;100.00;99217.94;6097383;23;20515;-67
2023/04/01 03:50:19;;;;;;;2.30;2.10;;;;;;;10.15;100.00;99214.38;6126511;23;20394;-68
2023/04/01 03:52:48;;;;;;;7.40;2.90;;;;;;;10.22;100.00;99217.75;6108937;23;20384;-69
2023/04/01 03:55:19;;;;;;;4.77;3.23;;;;;;;10.33;100.00;99219.63;6110918;23;20390;-67
2023/04/01 03:57:49;;;;;;;4.07;2.90;;;;;;;10.35;100.00;99222.09;6107584;23;20440;-69
2023/04/01 04:00:20;;;;;;;4.77;2.80;;;;;;;10.31;100.00;99221.72;6098418;23;20379;-68
2023/04/01 04:02:55;;;;;;;5.43;3.00;;;;;;;10.28;100.00;99219.50;6097738;23;20480;-69
2023/04/01 04:05:30;;;;;;;3.53;2.00;;;;;;;10.27;100.00;99228.69;6098597;23;20394;-68
2023/04/01 04:08:00;;;;;;;6.27;2.80;;;;;;;10.36;100.00;99229.94;6097248;23;20434;-66
2023/04/01 04:10:31;;;;;;;5.03;2.40;;;;;;;10.30;100.00;99233.63;6123564;23;20386;-68
2023/04/01 04:13:00;;;;;;;5.33;3.43;;;;;;;10.24;100.00;99231.06;6098358;23;20437;-67
2023/04/01 04:15:31;;;;;;;7.10;3.33;;;;;;;10.16;100.00;99242.25;6097100;23;20448;-69
2023/04/01 04:18:01;;;;;;;4.53;3.60;;;;;;;10.19;100.00;99239.06;6096952;23;20461;-68
2023/04/01 04:20:30;;;;;;;6.67;4.60;;;;;;;10.18;100.00;99237.41;6097874;23;20411;-68
2023/04/01 04:23:01;;;;;;;6.97;3.23;;;;;;;10.15;100.00;99238.69;6097268;23;20442;-69
2023/04/01 04:25:31;;;;;;;8.77;2.97;;;;;;;10.20;100.00;99240.69;6123684;23;20352;-68
2023/04/01 04:28:01;;;;;;;6.87;3.27;;;;;;;10.04;100.00;99243.06;6097529;23;20423;-68
2023/04/01 04:30:32;;;;;;;7.97;3.30;;;;;;;10.08;100.00;99246.09;6097859;23;20838;-67
2023/04/01 04:33:01;;;;;;;5.40;4.03;;;;;;;10.07;100.00;99235.53;6097181;23;20381;-67
2023/04/01 04:35:30;;;;;;;8.60;4.00;;;;;;;10.11;100.00;99248.34;6098320;23;20409;-67
2023/04/01 04:38:00;;;;;;;9.37;3.80;;;;;;;10.11;100.00;99248.34;6096562;23;20493;-67
2023/04/01 04:40:30;;;;;;;5.30;4.03;;;;;;;10.21;100.00;99253.16;6097217;23;20894;-69
2023/04/01 04:43:00;;;;;;;4.80;4.30;;;;;;;10.16;100.00;99248.47;6097125;23;20425;-68
2023/04/01 04:45:29;;;;;;;7.90;3.53;;;;;;;10.18;100.00;99250.91;6096969;23;20504;-67
2023/04/01 04:48:00;;;;;;;9.40;4.40;;;;;;;10.09;100.00;99250.44;6123644;23;20428;-68
2023/04/01 04:50:30;;;;;;;4.57;4.03;;;;;;;10.15;100.00;99252.19;6097683;23;20806;-67
2023/04/01 04:52:59;;;;;;;6.33;4.27;;;;;;;10.11;100.00;99261.03;6097204;23;20414;-68
2023/04/01 04:55:30;;;;;;;6.10;5.50;;;;;;;10.29;100.00;99255.47;6123639;23;20377;-69
2023/04/01 04:58:18;;;;;;;11.50;4.00;;;;;;;10.37;100.00;99258.63;6097353;23;20458;-67
2023/04/01 05:00:47;;;;;;;4.83;3.30;;;;;;;10.29;100.00;99261.72;6098357;23;20480;-67
2023/04/01 05:03:29;;;;;;;8.57;4.63;;;;;;;10.37;100.00;99263.19;6097833;23;20388;-67
2023/04/01 05:05:59;;;;;;;4.90;3.67;;;;;;;10.29;100.00;99263.59;6098168;23;20414;-67
2023/04/01 05:08:28;;;;;;;7.00;3.90;;;;;;;10.31;100.00;99256.06;6122123;23;20444;-67
2023/04/01 05:10:59;;;;;;;6.87;4.13;;;;;;;10.29;100.00;99260.88;6097304;23;20406;-67
2023/04/01 05:13:28;;;;;;;5.90;3.73;;;;;;;10.33;100.00;99268.28;6097267;23;20392;-67
2023/04/01 05:15:57;;;;;;;4.90;4.23;;;;;;;10.22;100.00;99271.00;6098083;23;20914;-68
2023/04/01 05:18:27;;;;;;;5.67;4.43;;;;;;;10.31;100.00;99269.59;6123510;23;20409;-67
2023/04/01 05:20:57;;;;;;;11.97;4.10;;;;;;;10.46;100.00;99275.28;6123317;23;20378;-66
2023/04/01 05:23:26;;;;;;;7.47;4.93;;;;;;;10.40;100.00;99273.56;6097877;23;20782;-67
2023/04/01 05:25:56;;;;;;;4.97;3.67;;;;;;;10.33;100.00;99267.47;6123670;23;20607;-70
2023/04/01 05:28:27;;;;;;;4.37;3.40;;;;;;;10.27;100.00;99268.41;6096743;23;20494;-69
2023/04/01 05:30:59;;;;;;;4.23;3.20;;;;;;;10.32;100.00;99273.91;6097547;23;20472;-69
2023/04/01 05:33:32;;;;;;;5.43;4.30;;;;;;;10.38;100.00;99278.38;6122791;23;20444;-69
2023/04/01 05:36:08;;;;;;;7.83;4.20;;;;;;;10.33;100.00;99276.38;6102258;23;20446;-69
2023/04/01 05:38:38;;;;;;;9.73;3.90;;;;;;;10.36;100.00;99285.91;6115634;23;20399;-69
2023/04/01 05:41:10;;;;;;;11.00;4.50;;;;;;;10.21;100.00;99282.91;6111527;23;20466;-68
2023/04/01 05:43:45;;;;;;;6.77;3.77;;;;;;;10.29;100.00;99277.94;6102831;23;21027;-69
2023/04/01 05:46:34;;;;;;;7.27;4.33;;;;;;;10.37;100.00;99282.13;6067171;23;20447;-69
2023/04/01 05:49:23;;;;;;;7.67;3.80;;;;;;;10.38;100.00;99286.47;6107963;23;20821;-67
2023/04/01 05:51:57;;;;;;;6.97;4.03;;;;;;;10.40;100.00;99289.78;6108057;23;20396;-67
2023/04/01 05:54:29;;;;;;;8.83;4.43;;;;;;;10.47;100.00;99290.44;6106260;23;20384;-68
2023/04/01 05:56:58;;;;;;;6.73;3.47;;;;;;;10.55;100.00;99295.50;6131823;23;20401;-67
2023/04/01 05:59:30;;;;;;;7.93;4.00;;;;;;;10.55;100.00;99298.19;6101456;23;20429;-68
2023/04/01 06:02:00;;;;;;;5.70;4.57;;;;;;;10.50;100.00;99295.41;6101825;23;20388;-70
2023/04/01 06:04:38;;;;;;;7.10;4.63;;;;;;;10.59;100.00;99302.06;6100959;23;20477;-68
2023/04/01 06:07:12;;;;;;;8.90;4.73;;;;;;;10.41;100.00;99307.63;6104047;23;20428;-69
2023/04/01 06:09:43;;;;;;;6.30;4.10;;;;;;;10.67;100.00;99296.25;6101482;23;20448;-67
2023/04/01 06:12:56;;;;;;;7.80;5.40;;;;;;;10.63;100.00;99313.22;6133006;23;20379;-67
2023/04/01 06:15:37;;;;;;;5.67;4.10;;;;;;;10.63;100.00;99310.50;6089397;23;20379;-68
2023/04/01 06:18:39;;;;;;;7.03;4.00;;;;;;;10.60;100.00;99317.22;6107596;23;20429;-68
2023/04/01 06:21:21;;;;;;;7.10;6.40;;;;;;;10.68;100.00;99318.72;6097543;23;20375;-68
2023/04/01 06:24:24;;;;;;;6.43;4.10;;;;;;;10.70;100.00;99322.81;6097310;23;20431;-67
2023/04/01 06:27:03;;;;;;;10.93;5.13;;;;;;;10.61;100.00;99324.28;6096286;23;20970;-68
2023/04/01 06:30:06;;;;;;;5.07;4.53;;;;;;;10.63;100.00;99321.34;6096377;23;20536;-69
2023/04/01 06:32:57;;;;;;;7.33;5.43;;;;;;;10.56;100.00;99326.88;6066446;23;20404;-68
2023/04/01 06:35:50;;;;;;;12.50;4.80;;;;;;;10.60;100.00;99333.44;6098381;23;20408;-67
2023/04/01 06:38:41;;;;;;;7.40;3.70;;;;;;;10.49;100.00;99331.59;6098397;23;20432;-68
2023/04/01 06:41:36;;;;;;;16.53;4.90;;;;;;;10.45;100.00;99335.84;6124601;23;20338;-68
2023/04/01 06:44:18;;;;;;;7.27;4.63;;;;;;;10.46;100.00;99332.06;6098611;23;20495;-67
2023/04/01 06:47:23;;;;;;;6.47;4.30;;;;;;;10.54;100.00;99345.25;6124754;23;20474;-68
2023/04/01 06:50:25;;;;;;;8.97;5.50;;;;;;;10.57;100.00;99339.34;6134105;23;20423;-68
2023/04/01 06:53:05;;;;;;;10.73;6.30;;;;;;;10.60;100.00;99338.84;6141445;23;20717;-69
2023/04/01 06:55:58;;;;;;;8.93;5.60;;;;;;;10.56;100.00;99344.97;6141153;23;20379;-69
2023/04/01 06:58:51;;;;;;;7.77;4.57;;;;;;;10.66;100.00;99347.88;6135704;23;20448;-68
2023/04/01 07:01:27;;;;;;;6.00;5.00;;;;;;;10.67;100.00;99346.84;6120133;23;20386;-68
2023/04/01 07:04:00;;;;;;;12.17;5.03;;;;;;;10.70;100.00;99341.75;6114230;23;20408;-67
2023/04/01 07:06:36;;;;;;;5.20;4.50;;;;;;;10.61;100.00;99345.91;6111358;23;20801;-69
2023/04/01 07:09:10;;;;;;;8.53;5.30;;;;;;;10.57;100.00;99344.75;6106682;23;20461;-68
2023/04/01 07:12:16;;;;;;;12.87;6.50;;;;;;;10.67;100.00;99349.53;6099592;23;20415;-67
2023/04/01 07:15:16;;;;;;;15.10;7.37;;;;;;;10.77;100.00;99347.88;6134332;23;20746;-68
2023/04/01 07:17:47;;;;;;;9.17;5.60;;;;;;;10.77;100.00;99350.56;6108697;23;20382;-68
2023/04/01 07:20:23;;;;;;;8.20;5.37;;;;;;;10.81;100.00;99350.91;6109458;23;20459;-68
2023/04/01 07:22:58;;;;;;;6.93;4.93;;;;;;;10.85;100.00;99363.72;6136078;23;20428;-67
2023/04/01 07:25:35;;;;;;;6.97;6.30;;;;;;;10.86;100.00;99362.66;6108349;23;20398;-68
2023/04/01 07:28:37;;;;;;;7.20;6.50;;;;;;;10.77;100.00;99360.56;6065080;23;20487;-69
2023/04/01 07:31:35;;;;;;;8.20;4.87;;;;;;;10.61;100.00;99372.97;6099406;23;20433;-69
2023/04/01 07:34:10;;;;;;;5.67;4.60;;;;;;;10.26;100.00;99372.22;6100268;23;20459;-68
2023/04/01 07:36:45;;;;;;;6.20;5.00;;;;;;;10.43;100.00;99379.34;6102418;23;20391;-68
2023/04/01 07:39:31;;;;;;;4.40;3.77;;;;;;;10.62;100.00;99374.59;6128783;23;20471;-68
2023/04/01 07:42:17;;;;;;;4.43;3.10;;;;;;;10.64;100.00;99377.91;6103828;23;20388;-68
2023/04/01 07:44:55;;;;;;;6.93;3.67;;;;;;;10.77;100.00;99379.50;6106916;23;20379;-68
2023/04/01 07:47:51;;;;;;;3.20;2.90;;;;;;;10.99;100.00;99382.38;6110164;23;20388;-67
2023/04/01 07:50:27;;;;;;;10.50;9.47;;;;;;;10.75;100.00;99371.63;6134789;23;20426;-67
2023/04/01 07:53:09;;;;;;;5.77;4.50;;;;;;;10.98;100.00;99380.75;6108562;23;20835;-67
2023/04/01 07:55:51;;;;;;;5.70;4.47;;;;;;;11.01;100.00;99383.78;6109591;23;20377;-68
2023/04/01 07:58:26;;;;;;;6.80;5.20;;;;;;;11.03;100.00;99392.50;6133780;23;20387;-67
2023/04/01 08:01:03;;;;;;;9.47;7.37;;;;;;;10.75;100.00;99393.25;6105791;23;20433;-68
2023/04/01 08:03:55;;;;;;;8.30;7.50;;;;;;;10.40;100.00;99395.25;6106825;23;20802;-68
2023/04/01 08:06:31;;;;;;;8.50;4.67;;;;;;;10.19;100.00;99396.66;6102333;23;20700;-68
2023/04/01 08:09:09;;;;;;;5.33;4.33;;;;;;;9.98;100.00;99399.91;6102120;23;20934;-68
2023/04/01 08:12:13;;;;;;;6.40;3.53;;;;;;;9.80;100.00;99402.72;6110325;23;20404;-69
2023/04/01 08:15:11;;;;;;;5.90;3.87;;;;;;;9.76;100.00;99402.38;6129309;23;20376;-69
2023/04/01 08:18:05;;;;;;;5.38;3.83;;;;;;;9.53;100.00;99405.03;6098626;23;20411;-68
2023/04/01 08:20:40;;;;;;;6.18;3.00;;;;;;;9.40;100.00;99411.44;6098052;23;20166;-68
2023/04/01 08:23:15;;;;;;;6.30;4.30;;;;;;;9.41;100.00;99412.25;6123745;23;20153;-68
2023/04/01 08:25:52;;;;;;;5.80;4.00;;;;;;;9.30;100.00;99413.88;6097758;23;20252;-67
2023/04/01 08:28:30;;;;;;;7.13;4.45;;;;;;;9.31;100.00;99420.09;6097557;23;20254;-67
2023/04/01 08:31:06;;;;;;;8.80;5.72;;;;;;;9.22;100.00;99426.88;6097650;23;20197;-69
2023/04/01 08:33:37;;;;;;;5.78;4.90;;;;;;;9.14;100.00;99420.75;6098240;23;20179;-67
2023/04/01 08:36:16;;;;;;;9.73;6.55;;;;;;;9.09;100.00;99426.00;6097709;23;20176;-69
2023/04/01 08:38:55;;;;;;;11.70;6.85;;;;;;;9.00;100.00;99434.66;6098192;23;20223;-68
2023/04/01 08:42:14;;;;;;;11.07;7.28;;;;;;;9.09;100.00;99435.97;6097958;23;20181;-69
2023/04/01 08:45:19;;;;;;;12.55;7.60;;;;;;;9.26;100.00;99444.25;6097511;23;20580;-69
2023/04/01 08:48:29;;;;;;;10.43;7.55;;;;;;;9.19;100.00;99438.13;6123906;23;20249;-69
2023/04/01 08:51:26;;;;;;;14.30;9.82;;;;;;;9.24;100.00;99440.97;6097298;23;20192;-68
2023/04/01 08:54:21;;;;;;;17.73;9.70;;;;;;;9.13;100.00;99447.97;6097520;23;20189;-69
2023/04/01 08:57:00;;;;;;;13.82;8.75;;;;;;;9.12;100.00;99444.44;6093698;23;20633;-68
2023/04/01 08:59:51;;;;;;;15.35;9.65;;;;;;;9.02;100.00;99448.72;6108649;23;20548;-67
2023/04/01 09:03:32;;;;;;;12.23;9.25;;;;;;;9.16;100.00;99444.78;6112394;23;20176;-68
2023/04/01 09:06:27;;;;;;;21.25;10.63;;;;;;;9.19;100.00;99454.31;6099215;23;20255;-69
2023/04/01 09:09:35;;;;;;;19.08;13.35;;;;;;;9.19;100.00;99448.94;6100213;23;20280;-69
2023/04/01 09:12:45;;;;;;;18.13;13.10;;;;;;;9.24;100.00;99443.66;6103440;23;20629;-69
2023/04/01 09:15:41;;;;;;;21.40;14.15;;;;;;;9.37;100.00;99451.56;6084762;23;20196;-69
2023/04/01 09:18:41;;;;;;;24.48;13.57;;;;;;;9.43;100.00;99456.06;6103869;23;20216;-69
2023/04/01 09:21:30;;;;;;;16.48;12.43;;;;;;;9.40;100.00;99461.91;6101222;23;20233;-69
2023/04/01 09:24:36;;;;;;;18.92;12.93;;;;;;;9.25;100.00;99462.31;6104280;23;20222;-68
2023/04/01 09:27:11;;;;;;;19.85;13.85;;;;;;;9.28;100.00;99469.16;6103521;23;20219;-68
2023/04/01 09:30:11;;;;;;;20.50;14.70;;;;;;;9.30;100.00;99475.94;6103830;23;20221;-69
2023/04/01 09:33:06;;;;;;;16.08;11.48;;;;;;;9.22;100.00;99486.25;6130487;23;20462;-69
2023/04/01 09:35:47;;;;;;;16.38;12.75;;;;;;;9.07;100.00;99489.34;6103961;23;20161;-68
2023/04/01 09:38:24;;;;;;;15.65;12.70;;;;;;;9.10;100.00;99484.31;6132650;23;20530;-67
2023/04/01 09:40:58;;;;;;;18.50;12.55;;;;;;;9.16;100.00;99490.66;6132081;23;20172;-69
2023/04/01 09:43:57;;;;;;;15.70;11.68;;;;;;;9.02;100.00;99487.31;6107007;23;20172;-68
2023/04/01 09:46:38;;;;;;;18.70;13.43;;;;;;;9.10;100.00;99495.09;6105348;23;20165;-68
2023/04/01 09:49:49;;;;;;;14.35;10.30;;;;;;;9.16;100.00;99505.00;6138400;23;20193;-69
2023/04/01 09:52:33;;;;;;;15.25;11.98;;;;;;;9.41;100.00;99499.47;6108924;23;20192;-69
2023/04/01 09:55:49;;;;;;;18.20;11.93;;;;;;;9.35;100.00;99507.66;6110918;23;20178;-67
2023/04/01 09:59:03;;;;;;;16.98;12.85;;;;;;;9.20;100.00;99505.34;6131831;23;20191;-69
2023/04/01 10:02:29;;;;;;;14.27;11.75;;;;;;;9.07;100.00;99506.34;6127679;23;20547;-69
2023/04/01 10:05:48;;;;;;;17.60;12.65;;;;;;;9.10;100.00;99513.19;6095196;23;20204;-69
2023/04/01 10:08:51;;;;;;;15.88;12.52;;;;;;;9.00;100.00;99513.72;6101945;23;20227;-68
2023/04/01 10:12:11;;;;;;;15.95;11.68;;;;;;;8.78;100.00;99517.88;6100156;23;20241;-69
2023/04/01 10:15:32;;;;;;;17.50;12.60;;;;;;;8.86;100.00;99525.69;6049621;23;20557;-68
2023/04/01 10:18:38;;;;;;;17.90;13.07;;;;;;;8.77;100.00;99527.03;6064629;23;20192;-69
2023/04/01 10:21:36;;;;;;;18.65;12.93;;;;;;;8.84;100.00;99535.06;6066396;23;20235;-69
2023/04/01 10:24:47;;;;;;;13.48;11.95;;;;;;;8.71;100.00;99533.34;6125623;23;20164;-69
2023/04/01 10:27:49;;;;;;;15.63;11.00;;;;;;;8.58;100.00;99538.84;6099643;23;20236;-69
2023/04/01 10:31:09;;;;;;;17.27;11.50;;;;;;;8.65;100.00;99545.81;6120830;23;20205;-69
2023/04/01 10:34:22;;;;;;;16.67;13.20;;;;;;;8.66;100.00;99536.69;6102257;23;20236;-69
2023/04/01 10:36:57;;;;;;;13.90;10.35;;;;;;;8.57;100.00;99542.56;6104623;23;20175;-68
2023/04/01 10:40:12;;;;;;;16.50;12.02;;;;;;;8.64;100.00;99543.34;6107988;23;20188;-68
2023/04/01 10:43:43;;;;;;;13.50;10.68;;;;;;;8.64;100.00;99543.34;6131395;23;20251;-69
2023/04/01 10:46:53;;;;;;;14.15;11.65;;;;;;;8.71;100.00;99554.91;6097180;23;20255;-69
2023/04/01 10:49:52;;;;;;;15.43;11.55;;;;;;;8.64;100.00;99548.75;6086878;23;20283;-68
2023/04/01 10:52:56;;;;;;;13.80;11.18;;;;;;;8.72;100.00;99551.13;6096051;23;20194;-67
2023/04/01 10:56:35;;;;;;;21.15;15.57;;;;;;;8.70;100.00;99555.94;6033453;23;20213;-69
2023/04/01 10:59:52;;;;;;;13.55;10.60;;;;;;;8.57;100.00;99553.34;6123699;23;20219;-68
2023/04/01 11:03:08;;;;;;;13.85;9.90;;;;;;;8.33;100.00;99551.53;6096372;23;20186;-69
2023/04/01 11:06:47;;;;;;;14.57;10.73;;;;;;;8.28;100.00;99557.50;6097461;23;20180;-68
2023/04/01 11:09:53;;;;;;;14.65;11.20;;;;;;;8.40;100.00;99563.06;6097651;23;20249;-69
2023/04/01 11:12:55;;;;;;;13.57;11.48;;;;;;;8.43;100.00;99562.59;6095951;23;20717;-67
2023/04/01 11:15:48;;;;;;;16.73;12.63;;;;;;;8.50;100.00;99561.53;6097866;23;20205;-70
2023/04/01 11:19:02;;;;;;;16.98;13.07;;;;;;;8.58;100.00;99573.88;6097491;23;20248;-69
2023/04/01 11:22:09;;;;;;;11.23;9.40;;;;;;;8.32;100.00;99574.94;6073337;23;20198;-69
2023/04/01 11:25:08;;;;;;;25.90;17.33;;;;;;;8.27;100.00;99570.19;6099342;23;20176;-67
2023/04/01 11:28:13;;;;;;;15.85;11.85;;;;;;;8.24;100.00;99581.38;6098729;23;20181;-67
2023/04/01 11:30:59;;;;;;;14.50;10.43;;;;;;;8.19;100.00;99586.59;6099609;23;20697;-69
2023/04/01 11:33:35;;;;;;;12.65;9.98;;;;;;;8.10;100.00;99581.69;6125075;23;20175;-69
2023/04/01 11:36:17;;;;;;;13.60;10.38;;;;;;;8.00;100.00;99584.88;6099038;23;20171;-70
2023/04/01 11:39:04;;;;;;;19.52;13.13;;;;;;;7.91;100.00;99583.50;6123489;23;20215;-69
2023/04/01 11:42:34;;;;;;;17.23;13.00;;;;;;;7.99;100.00;99594.00;6142226;23;20677;-87
2023/04/01 11:45:57;;;;;;;20.80;15.82;;;;;;;8.12;100.00;99598.50;6151333;23;20171;-88
2023/04/01 11:48:54;;;;;;;16.52;13.05;;;;;;;7.99;100.00;99599.38;6211443;23;20158;-86
2023/04/01 11:55:36;;;;;;;17.60;13.43;;;;;;;7.91;100.00;99607.72;5128305;27;20538;-70
2023/04/01 11:58:39;;;;;;;20.83;15.18;;;;;;;7.88;100.00;99618.13;5128460;28;20692;-69
2023/04/01 12:01:25;;;;;;;18.10;14.75;;;;;;;7.75;100.00;99621.69;5111030;27;20209;-69
2023/04/01 12:04:25;;;;;;;20.33;14.80;;;;;;;7.80;100.00;99622.69;5127791;27;20200;-70
2023/04/01 12:07:03;;;;;;;21.25;16.25;;;;;;;7.82;100.00;99630.56;5122394;28;20201;-69
2023/04/01 12:09:43;;;;;;;18.25;14.75;;;;;;;7.73;100.00;99632.69;5125258;28;20245;-68
2023/04/01 12:12:21;;;;;;;15.98;12.73;;;;;;;7.72;100.00;99635.59;5119466;28;20204;-70
2023/04/01 12:15:02;;;;;;;16.15;12.75;;;;;;;7.81;100.00;99635.13;5122924;27;20203;-68
2023/04/01 12:17:40;;;;;;;18.42;13.65;;;;;;;7.82;100.00;99636.78;5125493;28;20195;-67
2023/04/01 12:20:37;;;;;;;15.95;13.02;;;;;;;7.83;100.00;99643.00;5124473;27;20199;-67
2023/04/01 12:23:25;;;;;;;15.90;12.68;;;;;;;7.79;100.00;99641.78;5116183;28;20285;-69
2023/04/01 12:26:21;;;;;;;16.20;13.02;;;;;;;7.87;100.00;99646.91;5122885;28;20199;-67
2023/04/01 12:29:09;;;;;;;14.63;12.35;;;;;;;7.87;100.00;99660.38;5121870;27;20642;-69
2023/04/01 12:31:48;;;;;;;13.85;11.52;;;;;;;7.69;100.00;99658.41;5125641;28;20274;-67
2023/04/01 12:35:02;;;;;;;16.63;12.25;;;;;;;7.53;100.00;99658.84;5119358;27;20720;-69
2023/04/01 12:37:38;;;;;;;16.88;12.65;;;;;;;7.49;100.00;99659.50;5114752;27;20298;-69
2023/04/01 12:40:22;;;;;;;18.85;15.35;;;;;;;7.58;100.00;99664.44;5119421;28;20214;-69
2023/04/01 12:43:07;;;;;;;16.25;12.73;;;;;;;7.58;100.00;99669.00;5121181;27;20679;-70
2023/04/01 12:45:45;;;;;;;19.17;14.25;;;;;;;7.69;100.00;99679.09;5123974;28;20193;-69
2023/04/01 12:48:48;;;;;;;18.75;14.25;;;;;;;7.58;100.00;99683.28;5129286;27;20210;-68
2023/04/01 12:51:39;;;;;;;19.10;14.40;;;;;;;7.55;100.00;99672.91;5130140;28;20518;-69
2023/04/01 12:54:41;;;;;;;18.90;14.32;;;;;;;7.63;100.00;99682.63;5138933;28;20755;-68
2023/04/01 12:57:31;;;;;;;20.85;14.52;;;;;;;7.64;100.00;99681.59;5130896;27;20278;-68
2023/04/01 13:00:24;;;;;;;23.50;14.50;;;;;;;7.65;100.00;99688.66;5123902;28;20586;-69
2023/04/01 13:03:14;;;;;;;18.52;14.73;;;;;;;7.49;100.00;99684.56;5119686;27;20193;-70
2023/04/01 13:06:22;;;;;;;20.58;15.38;;;;;;;7.54;100.00;99702.75;5116526;28;20192;-68
2023/04/01 13:09:04;;;;;;;17.85;14.40;;;;;;;7.45;100.00;99704.03;5086562;28;20213;-68
2023/04/01 13:11:46;;;;;;;17.60;13.40;;;;;;;7.38;100.00;99704.03;5124669;28;20199;-69
2023/04/01 13:14:41;;;;;;;19.75;14.40;;;;;;;7.35;100.00;99699.91;5118718;28;20914;-71
2023/04/01 13:17:18;;;;;;;21.27;16.00;;;;;;;7.46;100.00;99702.97;5116107;28;20235;-70
2023/04/01 13:19:54;;;;;;;23.13;14.65;;;;;;;7.52;100.00;99711.03;5114839;28;20512;-68
2023/04/01 13:22:47;;;;;;;17.33;13.70;;;;;;;7.49;100.00;99710.63;5112331;28;20203;-69
2023/04/01 13:25:27;;;;;;;21.02;16.83;;;;;;;7.54;100.00;99716.22;5111561;28;20264;-70
2023/04/01 13:28:04;;;;;;;22.42;14.10;;;;;;;7.49;100.00;99724.09;5101144;28;20593;-68
2023/04/01 13:30:40;;;;;;;17.52;14.38;;;;;;;7.52;100.00;99723.66;5110360;28;20251;-69
2023/04/01 13:33:27;;;;;;;16.05;12.98;;;;;;;7.41;100.00;99734.03;5104962;28;20724;-69
2023/04/01 13:36:08;;;;;;;16.33;12.98;;;;;;;7.34;100.00;99732.41;5104621;28;20211;-68
2023/04/01 13:39:06;;;;;;;15.50;11.80;;;;;;;7.24;100.00;99746.28;5108452;28;20217;-68
2023/04/01 13:41:49;;;;;;;14.52;10.75;;;;;;;7.27;100.00;99740.47;5102804;28;20216;-70
2023/04/01 13:44:29;;;;;;;14.00;10.80;;;;;;;7.28;100.00;99739.44;5103865;28;20194;-69
2023/04/01 13:47:21;;;;;;;14.75;10.80;;;;;;;7.31;100.00;99736.31;5099120;28;20214;-69
2023/04/01 13:50:30;;;;;;;10.90;9.48;;;;;;;7.23;100.00;99747.31;5097544;27;20233;-69